Time;durP1;ratioP1;P1;durP2;ratioP2;P2;SDS_P1;SDS_P2;PMS_P1;PMS_P2;Temp;Humidity;BMP_temperature;BMP_pressure;BME280_temperature;BME280_humidity;BME280_pressure;Samples;Min_cycle;Max_cycle;Signal;HPM_P1;HPM_P2
2021/09/01 00:01:05;;;;;;;9.18;6.35;;;;;;;22.65;70.51;100793.03;5027092;27;102211;-53
2021/09/01 00:03:33;;;;;;;8.18;6.60;;;;;;;22.66;70.46;100797.41;5029741;27;102172;-53
2021/09/01 00:06:00;;;;;;;8.85;6.38;;;;;;;22.66;70.46;100791.06;5028880;28;106631;-53
2021/09/01 00:08:28;;;;;;;8.25;6.25;;;;;;;22.64;70.43;100783.06;5042364;28;102155;-52
2021/09/01 00:10:54;;;;;;;8.80;6.20;;;;;;;22.65;70.46;100795.78;5044309;28;102138;-53
2021/09/01 00:13:21;;;;;;;8.55;6.43;;;;;;;22.65;70.63;100783.91;5041215;28;101978;-53
2021/09/01 00:15:47;;;;;;;9.35;6.38;;;;;;;22.63;70.77;100781.47;5040648;27;102825;-53
2021/09/01 00:18:14;;;;;;;9.32;6.55;;;;;;;22.64;70.52;100776.72;5032637;28;102309;-53
2021/09/01 00:20:40;;;;;;;8.15;5.72;;;;;;;22.65;70.42;100781.94;5028517;27;102413;-53
2021/09/01 00:23:07;;;;;;;7.63;6.05;;;;;;;22.63;70.57;100775.91;5012296;28;102627;-53
2021/09/01 00:25:35;;;;;;;10.40;6.00;;;;;;;22.63;70.28;100770.38;5028054;27;104027;-53
2021/09/01 00:28:02;;;;;;;10.57;6.40;;;;;;;22.63;70.39;100773.13;5034785;27;102306;-53
2021/09/01 00:30:29;;;;;;;10.07;6.57;;;;;;;22.63;70.48;100766.78;5031395;28;102262;-53
2021/09/01 00:32:55;;;;;;;8.00;6.30;;;;;;;22.62;70.56;100771.53;5033030;27;102278;-53
2021/09/01 00:35:22;;;;;;;8.02;6.43;;;;;;;22.62;70.33;100777.06;5027466;28;103953;-52
2021/09/01 00:37:50;;;;;;;8.15;6.32;;;;;;;22.63;70.81;100778.69;5029736;28;102305;-53
2021/09/01 00:40:17;;;;;;;9.52;6.35;;;;;;;22.63;70.50;100775.91;5027789;27;102576;-52
2021/09/01 00:42:45;;;;;;;10.68;6.60;;;;;;;22.62;70.54;100774.31;5029787;27;102321;-53
2021/09/01 00:45:13;;;;;;;10.10;5.95;;;;;;;22.62;70.49;100771.53;5026086;28;103713;-53
2021/09/01 00:47:39;;;;;;;7.95;6.28;;;;;;;22.62;70.59;100770.72;5025387;28;102613;-52
2021/09/01 00:50:07;;;;;;;9.02;6.45;;;;;;;22.61;70.70;100761.59;5027396;27;102653;-53
2021/09/01 00:52:37;;;;;;;6.80;6.10;;;;;;;22.62;70.42;100763.22;5027987;27;102455;-53
2021/09/01 00:55:05;;;;;;;9.75;6.25;;;;;;;22.62;70.54;100752.13;5020332;28;102196;-53
2021/09/01 00:57:33;;;;;;;8.63;6.32;;;;;;;22.62;70.54;100757.66;5026505;27;102383;-53
2021/09/01 01:00:03;;;;;;;9.48;7.07;;;;;;;22.62;70.34;100740.22;5027895;28;103530;-53
2021/09/01 01:02:29;;;;;;;9.40;6.75;;;;;;;22.61;70.33;100749.66;5030627;28;102343;-53
2021/09/01 01:04:56;;;;;;;8.82;6.63;;;;;;;22.62;70.37;100743.00;5019954;27;103697;-52
2021/09/01 01:07:23;;;;;;;9.93;7.13;;;;;;;22.62;70.74;100743.78;5026303;28;102087;-53
2021/09/01 01:09:50;;;;;;;8.85;6.60;;;;;;;22.61;70.51;100739.41;5019294;28;102784;-53
2021/09/01 01:12:20;;;;;;;8.23;6.50;;;;;;;22.62;70.17;100745.75;5028174;27;102534;-53
2021/09/01 01:14:48;;;;;;;10.48;7.13;;;;;;;22.62;70.35;100729.13;5026368;27;102699;-53
2021/09/01 01:17:17;;;;;;;9.07;6.68;;;;;;;22.60;70.31;100729.44;5026971;28;102767;-53
2021/09/01 01:19:46;;;;;;;9.73;6.50;;;;;;;22.60;70.52;100732.22;5028640;28;102287;-53
2021/09/01 01:22:14;;;;;;;8.52;6.65;;;;;;;22.60;70.42;100726.69;5026671;27;102311;-53
2021/09/01 01:24:52;;;;;;;7.73;6.87;;;;;;;22.60;70.40;100726.69;5027984;28;103728;-54
2021/09/01 01:27:25;;;;;;;8.35;6.82;;;;;;;22.59;70.33;100719.53;5028236;28;102378;-52
2021/09/01 01:29:52;;;;;;;7.63;6.15;;;;;;;22.59;70.33;100721.50;5028178;27;102315;-52
2021/09/01 01:32:18;;;;;;;10.95;6.80;;;;;;;22.59;70.43;100719.53;5029397;27;102285;-52
2021/09/01 01:34:45;;;;;;;8.95;6.78;;;;;;;22.58;70.32;100711.56;5027302;28;103750;-53
2021/09/01 01:37:11;;;;;;;8.02;6.65;;;;;;;22.59;70.44;100710.41;5027042;28;102663;-52
2021/09/01 01:39:39;;;;;;;8.85;6.82;;;;;;;22.58;70.21;100700.47;5029292;27;103387;-52
2021/09/01 01:42:10;;;;;;;8.27;6.72;;;;;;;22.58;70.48;100694.94;5029711;27;102421;-52
2021/09/01 01:44:38;;;;;;;11.30;7.15;;;;;;;22.57;70.13;100694.09;5027062;27;103902;-52
2021/09/01 01:47:04;;;;;;;7.27;6.30;;;;;;;22.58;70.35;100690.19;5027832;28;102465;-53
2021/09/01 01:49:31;;;;;;;9.15;6.95;;;;;;;22.58;70.35;100684.63;5012062;27;102769;-53
2021/09/01 01:51:58;;;;;;;8.30;6.35;;;;;;;22.58;70.33;100692.97;5023350;27;102741;-53
2021/09/01 01:54:25;;;;;;;7.10;6.35;;;;;;;22.58;70.31;100684.63;5027497;28;103822;-53
2021/09/01 01:56:51;;;;;;;7.50;6.45;;;;;;;22.56;70.42;100686.94;5028504;28;103154;-53
2021/09/01 01:59:18;;;;;;;9.00;6.95;;;;;;;22.58;70.46;100681.06;5027144;27;102545;-52
2021/09/01 02:01:48;;;;;;;8.13;6.53;;;;;;;22.58;70.33;100672.75;5027806;28;102682;-53
2021/09/01 02:04:14;;;;;;;;;;;;;;;22.58;70.13;100678.28;5028191;27;103823;-53
2021/09/01 02:06:40;;;;;;;7.60;5.85;;;;;;;22.56;70.22;100670.31;5026193;27;102499;-52
2021/09/01 02:09:07;;;;;;;8.68;7.22;;;;;;;22.57;70.23;100668.34;5025567;27;102446;-52
2021/09/01 02:11:34;;;;;;;8.77;6.40;;;;;;;22.55;70.39;100663.16;5026876;27;102909;-52
2021/09/01 02:14:00;;;;;;;8.38;6.70;;;;;;;22.55;70.33;100669.50;5026228;27;104034;-53
2021/09/01 02:16:27;;;;;;;7.95;5.85;;;;;;;22.55;70.38;100669.50;5021242;27;102378;-53
2021/09/01 02:18:55;;;;;;;8.25;6.78;;;;;;;22.55;70.55;100663.97;5020819;27;102063;-52
2021/09/01 02:21:21;;;;;;;7.50;6.45;;;;;;;22.56;70.54;100667.53;5025853;28;102137;-53
2021/09/01 02:23:49;;;;;;;8.48;6.43;;;;;;;22.55;70.39;100663.97;5027070;27;103993;-52
2021/09/01 02:26:16;;;;;;;9.32;6.40;;;;;;;22.56;70.54;100670.31;5015652;27;102455;-52
2021/09/01 02:28:43;;;;;;;9.63;6.65;;;;;;;22.54;70.42;100667.91;5027611;28;102017;-52
2021/09/01 02:31:09;;;;;;;7.03;6.32;;;;;;;22.55;70.24;100668.69;5019429;27;102241;-53
2021/09/01 02:33:36;;;;;;;7.80;6.63;;;;;;;22.54;70.29;100656.81;5027129;28;102821;-53
2021/09/01 02:36:04;;;;;;;7.47;6.43;;;;;;;22.55;70.42;100666.72;5028654;27;102174;-53
2021/09/01 02:38:31;;;;;;;8.18;6.72;;;;;;;22.55;70.37;100663.16;5025188;27;102274;-53
2021/09/01 02:41:02;;;;;;;8.57;5.97;;;;;;;22.55;70.29;100663.16;5025839;27;102614;-53
2021/09/01 02:43:29;;;;;;;8.02;6.13;;;;;;;22.54;70.50;100656.00;5027451;28;103978;-53
2021/09/01 02:45:56;;;;;;;7.00;6.10;;;;;;;22.54;70.38;100656.00;5025175;27;102436;-53
2021/09/01 02:48:23;;;;;;;8.32;6.28;;;;;;;22.54;70.38;100656.81;5024656;27;102167;-52
2021/09/01 02:50:52;;;;;;;8.40;5.93;;;;;;;22.54;70.51;100653.22;5026521;27;102695;-53
2021/09/01 02:53:20;;;;;;;;;;;;;;;22.53;70.19;100660.72;5026560;27;103530;-53
2021/09/01 02:55:47;;;;;;;8.77;6.30;;;;;;;22.54;70.31;100653.22;5027629;27;102259;-52
2021/09/01 02:58:13;;;;;;;9.50;6.13;;;;;;;22.55;70.32;100654.84;5022713;27;104799;-53
2021/09/01 03:00:39;;;;;;;8.90;6.70;;;;;;;22.54;70.41;100647.69;5027829;27;102469;-53
2021/09/01 03:03:06;;;;;;;7.90;6.30;;;;;;;22.54;70.29;100644.91;5026830;27;103811;-52
2021/09/01 03:05:33;;;;;;;8.00;6.20;;;;;;;22.54;70.46;100640.16;5024315;27;102029;-53
2021/09/01 03:07:59;;;;;;;7.25;5.75;;;;;;;22.54;70.21;100644.91;5025605;27;102420;-52
2021/09/01 03:10:28;;;;;;;7.15;5.50;;;;;;;22.53;70.25;100648.81;5026252;28;102459;-52
2021/09/01 03:12:55;;;;;;;7.32;6.45;;;;;;;22.54;70.39;100644.91;5026190;27;103843;-52
2021/09/01 03:15:22;;;;;;;7.85;6.32;;;;;;;22.53;70.30;100643.28;5026139;27;102505;-53
2021/09/01 03:17:49;;;;;;;7.55;5.97;;;;;;;22.54;70.32;100647.69;5021940;27;102748;-53
2021/09/01 03:20:15;;;;;;;7.38;6.07;;;;;;;22.53;70.48;100652.41;5023138;27;103015;-53
2021/09/01 03:22:42;;;;;;;7.80;6.47;;;;;;;22.54;70.25;100650.47;5026099;28;103632;-53
2021/09/01 03:25:09;;;;;;;7.22;6.00;;;;;;;22.54;70.29;100653.22;5025179;27;102328;-53
2021/09/01 03:27:38;;;;;;;8.18;6.22;;;;;;;22.53;70.56;100649.63;5024670;27;102107;-53
2021/09/01 03:30:06;;;;;;;7.35;6.38;;;;;;;22.53;70.53;100648.81;5026481;28;102462;-52
2021/09/01 03:32:34;;;;;;;8.50;7.38;;;;;;;22.53;70.47;100655.16;5025851;28;104102;-53
2021/09/01 03:35:00;;;;;;;7.80;6.32;;;;;;;22.53;70.20;100652.41;5022196;27;103659;-52
2021/09/01 03:37:26;;;;;;;9.60;6.50;;;;;;;22.52;70.27;100650.78;5024705;27;102526;-52
2021/09/01 03:39:53;;;;;;;8.13;6.72;;;;;;;22.52;70.47;100658.31;5029468;27;102308;-53
2021/09/01 03:42:20;;;;;;;9.40;6.30;;;;;;;22.53;70.18;100646.06;5027808;27;103789;-52
2021/09/01 03:44:48;;;;;;;9.00;6.68;;;;;;;22.53;70.21;100651.59;5030181;27;102377;-52
2021/09/01 03:47:15;;;;;;;8.23;6.85;;;;;;;22.53;70.42;100652.41;5021880;27;102657;-52
2021/09/01 03:49:41;;;;;;;7.85;6.85;;;;;;;22.53;70.47;100654.38;5031687;27;103174;-53
2021/09/01 03:52:08;;;;;;;7.45;6.75;;;;;;;22.53;70.36;100655.16;5022863;27;102689;-53
2021/09/01 03:54:35;;;;;;;9.68;7.35;;;;;;;22.52;70.49;100652.75;5030723;27;102431;-53
2021/09/01 03:57:02;;;;;;;10.60;6.78;;;;;;;22.53;70.43;100657.16;5026716;27;103331;-52
2021/09/01 03:59:28;;;;;;;7.88;6.63;;;;;;;22.52;70.28;100652.75;5031164;27;102109;-52
2021/09/01 04:01:56;;;;;;;10.30;7.07;;;;;;;22.53;70.51;100654.38;5028029;27;103942;-53
2021/09/01 04:04:23;;;;;;;9.30;6.67;;;;;;;22.52;70.31;100652.75;5029360;27;102908;-53
2021/09/01 04:06:49;;;;;;;8.02;6.60;;;;;;;22.52;70.31;100647.22;5027463;27;103025;-52
2021/09/01 04:09:17;;;;;;;8.00;6.35;;;;;;;22.51;70.39;100640.88;5025139;27;102936;-53
2021/09/01 04:11:52;;;;;;;9.23;6.47;;;;;;;22.52;70.37;100652.75;5029391;27;104014;-52
2021/09/01 04:14:19;;;;;;;7.18;6.30;;;;;;;22.53;70.60;100648.81;5030263;27;102529;-53
2021/09/01 04:16:46;;;;;;;8.00;6.22;;;;;;;22.52;70.43;100641.66;5025760;27;102524;-53
2021/09/01 04:19:13;;;;;;;8.43;6.60;;;;;;;22.52;70.34;100648.03;5027663;28;102513;-52
2021/09/01 04:21:40;;;;;;;9.20;6.57;;;;;;;22.52;70.47;100639.69;5028118;27;102968;-53
2021/09/01 04:24:07;;;;;;;7.57;6.55;;;;;;;22.52;70.52;100652.75;5028816;28;103169;-53
2021/09/01 04:26:34;;;;;;;7.90;6.43;;;;;;;22.52;70.57;100663.84;5026661;27;102553;-53
2021/09/01 04:29:01;;;;;;;6.75;6.03;;;;;;;22.51;70.48;100674.16;5029412;27;102352;-53
2021/09/01 04:31:27;;;;;;;7.60;6.20;;;;;;;22.52;70.41;100670.22;5023686;27;103977;-53
2021/09/01 04:33:54;;;;;;;8.13;6.50;;;;;;;22.52;70.34;100666.63;5029994;28;103390;-53
2021/09/01 04:36:22;;;;;;;9.32;6.43;;;;;;;22.52;70.38;100669.41;5027613;27;102695;-53
2021/09/01 04:38:48;;;;;;;7.93;6.70;;;;;;;22.53;70.65;100665.47;5031505;27;102225;-53
2021/09/01 04:41:15;;;;;;;10.10;6.95;;;;;;;22.53;70.50;100665.47;5025423;27;102975;-53
2021/09/01 04:43:43;;;;;;;7.82;7.03;;;;;;;22.52;70.59;100663.84;5028010;27;102671;-53
2021/09/01 04:46:09;;;;;;;8.13;6.60;;;;;;;22.52;70.70;100661.09;5028704;27;102333;-53
2021/09/01 04:48:36;;;;;;;8.40;6.95;;;;;;;22.51;70.53;100651.16;5032638;27;102277;-53
2021/09/01 04:51:03;;;;;;;12.90;7.47;;;;;;;22.51;70.52;100654.75;5030019;28;104082;-53
2021/09/01 04:53:32;;;;;;;11.90;6.68;;;;;;;22.52;70.50;100661.09;5044461;28;102123;-52
2021/09/01 04:55:58;;;;;;;8.85;7.60;;;;;;;22.53;70.47;100651.59;5037851;27;102140;-53
2021/09/01 04:58:25;;;;;;;8.82;6.88;;;;;;;22.52;70.38;100652.75;5030932;27;102220;-52
2021/09/01 05:00:52;;;;;;;11.65;8.27;;;;;;;22.52;70.38;100642.47;5029002;27;103923;-53
2021/09/01 05:03:18;;;;;;;9.55;7.70;;;;;;;22.52;70.60;100647.22;5029109;27;102455;-53
2021/09/01 05:05:45;;;;;;;9.80;7.35;;;;;;;22.52;70.31;100642.47;5025554;28;102509;-53
2021/09/01 05:08:11;;;;;;;12.35;7.53;;;;;;;22.52;70.54;100642.47;5031437;28;102887;-53
2021/09/01 05:10:40;;;;;;;9.95;7.35;;;;;;;22.53;70.42;100649.63;5027711;27;104058;-54
2021/09/01 05:13:08;;;;;;;9.65;7.00;;;;;;;22.53;70.56;100637.72;5031043;27;102001;-53
2021/09/01 05:15:34;;;;;;;10.18;6.93;;;;;;;22.52;70.40;100628.59;5031860;28;103091;-53
2021/09/01 05:18:00;;;;;;;9.00;7.13;;;;;;;22.54;70.34;100625.50;5032016;27;102236;-53
2021/09/01 05:20:29;;;;;;;9.30;6.50;;;;;;;22.52;70.38;100631.38;5028003;28;103985;-53
2021/09/01 05:23:00;;;;;;;8.45;6.78;;;;;;;22.53;70.49;100621.91;5030262;27;102253;-53
2021/09/01 05:25:30;;;;;;;6.90;6.20;;;;;;;22.53;70.65;100619.13;5027713;28;102232;-53
2021/09/01 05:27:59;;;;;;;7.57;6.18;;;;;;;22.54;70.58;100623.53;5030481;27;102084;-53
2021/09/01 05:30:28;;;;;;;9.35;6.45;;;;;;;22.54;70.71;100623.53;5019999;27;104150;-53
2021/09/01 05:33:00;;;;;;;7.22;5.95;;;;;;;22.55;70.54;100624.31;5029367;28;102340;-52
2021/09/01 05:35:28;;;;;;;7.90;5.07;;;;;;;22.58;70.63;100620.03;5027451;27;102520;-53
2021/09/01 05:37:56;;;;;;;5.95;5.00;;;;;;;22.57;70.65;100613.66;5030420;27;102223;-53
2021/09/01 05:40:24;;;;;;;6.93;5.63;;;;;;;22.57;70.60;100608.13;5029489;28;103180;-53
2021/09/01 05:42:52;;;;;;;6.68;5.60;;;;;;;22.60;70.49;100609.38;5025750;27;102615;-53
2021/09/01 05:45:20;;;;;;;5.93;5.30;;;;;;;22.61;70.68;100611.81;5018894;27;102521;-53
2021/09/01 05:47:50;;;;;;;6.30;5.22;;;;;;;22.61;70.64;100606.28;5023925;27;102252;-53
2021/09/01 05:50:16;;;;;;;5.85;5.10;;;;;;;22.62;70.53;100613.44;5008765;27;104559;-53
2021/09/01 05:52:43;;;;;;;6.03;5.20;;;;;;;22.65;70.53;100614.69;5030065;27;102364;-52
2021/09/01 05:55:10;;;;;;;6.18;5.38;;;;;;;22.65;70.56;100603.59;5021245;27;102355;-53
2021/09/01 05:57:39;;;;;;;12.13;5.15;;;;;;;22.66;70.60;100608.78;5027225;27;102864;-53
2021/09/01 06:00:09;;;;;;;6.35;4.80;;;;;;;22.68;70.67;100608.41;5025957;27;104087;-53
2021/09/01 06:02:46;;;;;;;6.15;5.18;;;;;;;22.69;70.64;100601.72;5025511;27;102550;-53
2021/09/01 06:05:13;;;;;;;4.97;4.47;;;;;;;22.70;70.58;100604.13;5025703;27;102504;-53
2021/09/01 06:07:52;;;;;;;5.53;4.68;;;;;;;22.71;70.64;100600.19;5022707;27;102963;-53
2021/09/01 06:10:22;;;;;;;5.28;4.72;;;;;;;22.72;70.52;100601.81;5019832;27;103838;-52
2021/09/01 06:12:52;;;;;;;5.18;4.55;;;;;;;22.72;70.54;100593.50;5026384;27;101975;-53
2021/09/01 06:15:19;;;;;;;5.45;4.90;;;;;;;22.74;70.66;100596.69;5027006;27;102021;-53
2021/09/01 06:17:48;;;;;;;7.05;4.68;;;;;;;22.74;70.66;100593.13;5022452;27;102838;-53
2021/09/01 06:20:15;;;;;;;6.43;4.65;;;;;;;22.75;70.61;100589.97;5024093;27;103764;-53
2021/09/01 06:22:42;;;;;;;5.93;5.32;;;;;;;22.76;70.65;100597.16;5026939;27;102478;-53
2021/09/01 06:25:09;;;;;;;5.07;4.20;;;;;;;22.76;70.44;100597.16;5027059;27;102189;-52
2021/09/01 06:27:36;;;;;;;5.45;4.85;;;;;;;22.78;70.75;100594.00;5026654;27;102719;-53
2021/09/01 06:30:03;;;;;;;5.00;4.50;;;;;;;22.78;70.45;100594.00;5017972;27;102799;-53
2021/09/01 06:32:30;;;;;;;4.88;4.32;;;;;;;22.79;70.69;100593.69;5006214;28;104957;-53
2021/09/01 06:34:58;;;;;;;5.28;4.50;;;;;;;22.81;70.71;100595.28;5025039;28;102520;-53
2021/09/01 06:37:25;;;;;;;5.50;4.35;;;;;;;22.81;70.73;100598.84;5026458;27;102297;-53
2021/09/01 06:39:53;;;;;;;5.25;4.30;;;;;;;22.82;70.68;100594.09;5024107;27;104760;-53
2021/09/01 06:42:20;;;;;;;4.85;4.30;;;;;;;22.82;70.67;100591.34;5024177;27;102086;-53
2021/09/01 06:44:47;;;;;;;5.28;4.45;;;;;;;22.84;70.77;100600.13;5017846;27;105840;-53
2021/09/01 06:47:14;;;;;;;5.93;4.35;;;;;;;22.84;70.62;100592.59;5026781;27;103888;-53
2021/09/01 06:52:16;;;;;;;5.03;4.07;;;;;;;22.86;70.67;100592.22;4960706;28;102691;-53
2021/09/01 06:54:43;;;;;;;4.88;4.30;;;;;;;22.86;70.74;100597.78;4965571;28;103484;-53
2021/09/01 06:57:09;;;;;;;4.75;4.28;;;;;;;22.86;70.70;100597.78;4964961;28;102502;-53
2021/09/01 06:59:44;;;;;;;4.53;4.05;;;;;;;22.87;70.62;100593.84;4963779;28;104173;-53
2021/09/01 07:02:11;;;;;;;4.88;3.88;;;;;;;22.88;70.71;100587.13;4964386;28;102612;-53
2021/09/01 07:04:43;;;;;;;6.35;3.70;;;;;;;22.88;70.77;100587.13;4962275;28;102671;-53
2021/09/01 07:07:10;;;;;;;4.57;4.18;;;;;;;22.90;71.04;100596.72;4966594;28;102339;-53
2021/09/01 07:09:38;;;;;;;4.20;3.80;;;;;;;22.91;70.62;100586.44;4964346;28;103920;-53
2021/09/01 07:12:05;;;;;;;4.53;3.50;;;;;;;22.92;70.64;100591.63;4963785;28;102659;-53
2021/09/01 07:14:31;;;;;;;4.50;3.85;;;;;;;22.93;70.65;100584.13;4966472;28;102553;-53
2021/09/01 07:16:58;;;;;;;4.88;3.95;;;;;;;22.93;70.68;100586.88;4966430;28;102451;-53
2021/09/01 07:19:28;;;;;;;4.53;4.00;;;;;;;22.94;70.73;100585.75;4965787;28;103914;-53
2021/09/01 07:21:59;;;;;;;5.53;4.15;;;;;;;22.95;70.73;100588.16;4960770;28;102429;-53
2021/09/01 07:24:25;;;;;;;3.97;3.58;;;;;;;22.96;70.57;100584.19;4962074;28;102523;-53
2021/09/01 07:26:56;;;;;;;5.25;3.63;;;;;;;22.96;70.42;100586.19;4967268;28;102332;-53
2021/09/01 07:29:26;;;;;;;3.60;3.28;;;;;;;22.98;70.58;100581.88;4965417;28;102967;-53
2021/09/01 07:31:53;;;;;;;4.82;3.83;;;;;;;22.98;70.46;100576.34;4965750;28;102514;-53
2021/09/01 07:34:23;;;;;;;5.15;3.42;;;;;;;22.99;70.63;100572.38;4963898;28;103525;-53
2021/09/01 07:36:51;;;;;;;4.07;3.67;;;;;;;23.00;70.40;100567.63;4967105;28;102709;-53
2021/09/01 07:39:17;;;;;;;3.42;3.13;;;;;;;23.00;70.73;100562.88;4964064;28;104179;-52
2021/09/01 07:41:44;;;;;;;4.05;3.65;;;;;;;23.02;70.17;100576.41;4967411;28;102411;-53
2021/09/01 07:44:14;;;;;;;3.42;3.13;;;;;;;23.03;70.23;100566.91;4966265;28;102344;-53
2021/09/01 07:46:41;;;;;;;3.95;3.10;;;;;;;23.03;70.55;100566.91;4966284;28;102745;-52
2021/09/01 07:49:07;;;;;;;3.13;2.83;;;;;;;23.04;70.33;100562.97;4958893;28;103640;-53
2021/09/01 07:51:34;;;;;;;3.17;2.90;;;;;;;23.05;70.30;100561.03;4966702;28;102561;-53
2021/09/01 07:54:02;;;;;;;3.47;3.17;;;;;;;23.07;70.61;100567.81;4964310;28;102568;-53
2021/09/01 07:56:29;;;;;;;3.33;3.00;;;;;;;23.06;70.32;100566.22;4969673;28;102618;-53
2021/09/01 07:58:58;;;;;;;3.25;2.95;;;;;;;23.07;70.20;100562.25;4966101;28;102673;-53
2021/09/01 08:01:28;;;;;;;3.22;2.92;;;;;;;23.07;70.18;100553.94;4962669;28;102336;-53
2021/09/01 08:03:55;;;;;;;3.33;3.03;;;;;;;23.09;70.57;100557.16;4970022;28;102429;-53
2021/09/01 08:06:21;;;;;;;3.58;3.10;;;;;;;23.09;70.39;100554.41;4961251;28;102146;-53
2021/09/01 08:08:48;;;;;;;3.15;2.85;;;;;;;23.10;70.45;100558.78;4967463;28;103811;-53
2021/09/01 08:11:14;;;;;;;3.85;3.28;;;;;;;23.10;70.39;100561.53;4966249;28;102268;-53
2021/09/01 08:13:44;;;;;;;2.80;2.53;;;;;;;23.12;70.37;100559.22;4966127;28;102596;-53
2021/09/01 08:16:28;;;;;;;2.53;2.33;;;;;;;23.12;70.37;100553.69;4964006;28;102612;-53
2021/09/01 08:18:55;;;;;;;3.30;3.00;;;;;;;23.13;70.42;100560.84;4965940;28;103935;-53
2021/09/01 08:21:31;;;;;;;3.40;2.72;;;;;;;23.14;70.27;100551.31;4967214;28;102581;-52
2021/09/01 08:24:00;;;;;;;3.25;2.80;;;;;;;23.14;70.26;100551.31;4965089;28;102427;-53
2021/09/01 08:26:27;;;;;;;2.72;2.53;;;;;;;23.14;70.26;100554.09;4968440;28;102439;-53
2021/09/01 08:28:54;;;;;;;3.40;3.10;;;;;;;23.15;70.16;100558.50;4963692;28;104047;-55
2021/09/01 08:31:23;;;;;;;3.30;3.00;;;;;;;23.15;70.25;100552.97;4964448;28;102119;-53
2021/09/01 08:33:57;;;;;;;3.80;2.88;;;;;;;23.16;70.20;100543.47;4962879;28;102388;-53
2021/09/01 08:36:26;;;;;;;3.25;2.95;;;;;;;23.16;70.22;100551.78;4967267;28;102855;-53
2021/09/01 08:38:52;;;;;;;2.90;2.70;;;;;;;23.18;70.19;100543.88;4963495;28;104964;-53
2021/09/01 08:41:21;;;;;;;3.00;2.80;;;;;;;23.18;70.37;100540.31;4966805;28;102403;-53
2021/09/01 08:43:47;;;;;;;3.13;2.83;;;;;;;23.20;70.07;100543.53;4958757;28;102704;-53
2021/09/01 08:46:17;;;;;;;2.80;2.60;;;;;;;23.19;70.24;100531.63;4961807;28;102710;-53
2021/09/01 08:48:44;;;;;;;3.08;2.65;;;;;;;23.19;70.48;100531.63;4965583;28;103933;-53
2021/09/01 08:51:12;;;;;;;2.92;2.72;;;;;;;23.20;70.04;100522.13;4963864;28;102455;-53
2021/09/01 08:53:44;;;;;;;2.70;2.50;;;;;;;23.21;70.32;100529.28;4958606;28;102768;-53
2021/09/01 08:56:11;;;;;;;3.00;2.72;;;;;;;23.21;70.28;100529.28;4964101;28;102681;-53
2021/09/01 08:58:37;;;;;;;2.58;2.38;;;;;;;23.22;70.06;100528.13;4962235;28;104135;-53
2021/09/01 09:01:07;;;;;;;3.08;2.78;;;;;;;23.23;70.12;100521.41;4966946;28;102508;-53
2021/09/01 09:03:37;;;;;;;2.95;2.75;;;;;;;23.24;69.96;100522.22;4962246;28;103595;-53
2021/09/01 09:06:05;;;;;;;2.70;2.50;;;;;;;23.25;70.09;100519.06;4967077;28;102478;-53
2021/09/01 09:08:41;;;;;;;2.63;2.42;;;;;;;23.24;69.91;100516.66;4961491;28;104197;-53
2021/09/01 09:11:16;;;;;;;2.70;2.50;;;;;;;23.25;70.13;100535.72;4966535;28;102268;-53
2021/09/01 09:13:43;;;;;;;2.30;2.10;;;;;;;23.25;70.13;100521.84;4958274;28;102771;-53
2021/09/01 09:16:13;;;;;;;2.40;2.20;;;;;;;23.26;70.22;100523.47;4958332;28;103305;-52
2021/09/01 09:18:43;;;;;;;3.88;2.92;;;;;;;23.25;70.14;100510.72;4953110;28;103976;-53
2021/09/01 09:21:13;;;;;;;2.88;2.65;;;;;;;23.26;70.17;100520.69;4956993;28;102351;-53
2021/09/01 09:23:43;;;;;;;2.50;2.30;;;;;;;23.25;70.19;100507.97;4953190;28;102871;-53
2021/09/01 09:26:26;;;;;;;3.08;2.78;;;;;;;23.26;70.32;100509.59;4956927;28;102557;-53
2021/09/01 09:29:08;;;;;;;2.50;2.30;;;;;;;23.27;69.95;100513.16;4955054;28;103753;-53
2021/09/01 09:31:36;;;;;;;3.00;2.80;;;;;;;23.27;70.15;100504.84;4959445;28;102466;-52
2021/09/01 09:34:07;;;;;;;3.47;3.15;;;;;;;23.27;70.19;100497.31;4956115;28;102320;-53
2021/09/01 09:36:34;;;;;;;3.97;2.35;;;;;;;23.26;70.07;100492.94;4956078;28;102308;-53
2021/09/01 09:39:03;;;;;;;2.65;2.45;;;;;;;23.27;70.17;100488.97;4955797;28;103954;-53
2021/09/01 09:41:30;;;;;;;3.65;2.70;;;;;;;23.27;70.19;100494.53;4941335;28;103707;-52
2021/09/01 09:44:00;;;;;;;2.63;2.43;;;;;;;23.27;70.19;100494.53;4960578;28;102664;-53
2021/09/01 09:46:29;;;;;;;2.65;2.45;;;;;;;23.29;70.23;100487.81;4967499;28;102526;-53
2021/09/01 09:49:06;;;;;;;3.22;2.63;;;;;;;23.27;69.95;100480.66;4955683;28;104708;-53
2021/09/01 09:51:37;;;;;;;3.50;2.83;;;;;;;23.28;70.12;100478.66;4957142;28;102119;-53
2021/09/01 09:54:16;;;;;;;3.03;2.60;;;;;;;23.26;70.03;100487.38;4954990;28;103056;-52
2021/09/01 09:56:45;;;;;;;2.83;2.50;;;;;;;23.27;70.29;100477.88;4959095;28;102441;-53
2021/09/01 09:59:15;;;;;;;2.97;2.42;;;;;;;23.26;70.12;100476.28;4952682;28;103946;-53
2021/09/01 10:01:42;;;;;;;2.90;2.60;;;;;;;23.27;70.11;100488.97;4956420;28;102686;-53
2021/09/01 10:04:09;;;;;;;3.17;2.80;;;;;;;23.27;70.26;100480.66;4949957;28;103979;-53
2021/09/01 10:06:37;;;;;;;2.60;2.40;;;;;;;23.27;70.43;100488.97;4957896;28;102101;-52
2021/09/01 10:09:04;;;;;;;3.47;2.40;;;;;;;23.27;70.16;100485.41;4957338;28;103944;-53
2021/09/01 10:11:44;;;;;;;2.80;2.50;;;;;;;23.26;70.32;100490.16;4959386;28;102100;-53
2021/09/01 10:14:16;;;;;;;2.50;2.30;;;;;;;23.27;70.00;100480.66;4953532;28;102806;-53
2021/09/01 10:16:57;;;;;;;3.58;2.65;;;;;;;23.26;70.24;100487.38;4956227;28;103589;-53
2021/09/01 10:19:27;;;;;;;2.50;2.30;;;;;;;23.25;70.43;100485.75;4959694;28;103763;-52
2021/09/01 10:21:57;;;;;;;2.40;2.20;;;;;;;23.26;70.15;100490.16;4959125;28;102634;-53
2021/09/01 10:24:29;;;;;;;2.47;2.28;;;;;;;23.25;70.26;100485.75;4958219;28;102704;-53
2021/09/01 10:27:04;;;;;;;3.10;2.80;;;;;;;23.25;70.15;100480.19;4960711;28;102575;-53
2021/09/01 10:29:43;;;;;;;2.50;2.30;;;;;;;23.26;70.36;100486.53;4958697;28;104378;-53
2021/09/01 10:32:19;;;;;;;2.58;2.33;;;;;;;23.25;70.27;100482.97;4941306;28;102877;-52
2021/09/01 10:34:46;;;;;;;2.75;2.55;;;;;;;23.25;70.21;100485.75;4958703;28;102085;-53
2021/09/01 10:37:37;;;;;;;2.25;2.15;;;;;;;23.24;70.21;100478.59;4960855;28;102740;-53
2021/09/01 10:40:06;;;;;;;2.70;2.45;;;;;;;23.25;70.28;100479.41;4957212;28;103902;-53
2021/09/01 10:42:37;;;;;;;3.08;2.75;;;;;;;23.24;70.36;100478.59;4958701;28;102478;-53
2021/09/01 10:45:07;;;;;;;3.00;2.60;;;;;;;23.23;70.50;100470.63;4953640;28;102610;-53
2021/09/01 10:48:03;;;;;;;2.47;2.28;;;;;;;23.23;70.39;100471.44;4951270;28;102817;-52
2021/09/01 10:50:32;;;;;;;3.70;2.22;;;;;;;23.23;70.32;100465.88;4957829;28;103861;-53
2021/09/01 10:53:02;;;;;;;2.60;2.40;;;;;;;23.24;70.32;100473.03;4957932;28;102337;-53
2021/09/01 10:55:30;;;;;;;2.65;2.45;;;;;;;23.21;70.36;100473.75;4959427;28;102726;-53
2021/09/01 10:58:24;;;;;;;2.30;2.10;;;;;;;23.21;70.40;100468.22;4959276;28;102279;-52
2021/09/01 11:00:55;;;;;;;2.40;2.20;;;;;;;23.23;70.19;100476.19;4956059;28;103134;-52
2021/09/01 11:03:30;;;;;;;2.78;2.20;;;;;;;23.21;70.38;100467.41;4956984;28;102409;-53
2021/09/01 11:06:10;;;;;;;2.20;2.00;;;;;;;23.20;70.45;100455.50;4956460;28;102841;-52
2021/09/01 11:08:37;;;;;;;2.42;2.22;;;;;;;23.20;70.74;100461.06;4956838;28;102833;-52
2021/09/01 11:11:04;;;;;;;2.97;2.47;;;;;;;23.19;70.44;100448.34;4954948;28;103711;-53
2021/09/01 11:13:42;;;;;;;2.50;2.30;;;;;;;23.20;70.54;100449.94;4954626;28;102475;-53
2021/09/01 11:16:19;;;;;;;2.33;2.13;;;;;;;23.19;70.56;100444.78;4955484;28;104710;-53
2021/09/01 11:18:59;;;;;;;2.55;2.35;;;;;;;23.19;70.53;100445.56;4955742;28;102735;-52
2021/09/01 11:21:26;;;;;;;2.72;2.33;;;;;;;23.18;70.46;100449.50;4957930;28;103841;-55
2021/09/01 11:23:55;;;;;;;2.50;2.30;;;;;;;23.17;70.48;100450.69;4957146;28;102574;-53
2021/09/01 11:26:27;;;;;;;2.80;2.58;;;;;;;23.17;70.62;100439.56;4954588;28;102460;-52